sensor_id;sensor_type;location;lat;lon;timestamp;P1;durP1;ratioP1;P2;durP2;ratioP2
57746;SDS011;43580;44.014;20.466;2023-07-22T00:01:03;9.43;;;3.92;;
57746;SDS011;43580;44.014;20.466;2023-07-22T00:03:29;8.75;;;4.22;;
57746;SDS011;43580;44.014;20.466;2023-07-22T00:06:02;13.80;;;4.30;;
57746;SDS011;43580;44.014;20.466;2023-07-22T00:08:31;10.73;;;3.95;;
57746;SDS011;43580;44.014;20.466;2023-07-22T00:10:57;10.75;;;3.80;;
57746;SDS011;43580;44.014;20.466;2023-07-22T00:13:23;8.52;;;4.30;;
57746;SDS011;43580;44.014;20.466;2023-07-22T00:15:51;15.20;;;4.30;;
57746;SDS011;43580;44.014;20.466;2023-07-22T00:18:18;11.13;;;4.50;;
57746;SDS011;43580;44.014;20.466;2023-07-22T00:20:44;9.98;;;4.15;;
57746;SDS011;43580;44.014;20.466;2023-07-22T00:23:10;10.65;;;4.18;;
57746;SDS011;43580;44.014;20.466;2023-07-22T00:25:36;11.65;;;4.05;;
57746;SDS011;43580;44.014;20.466;2023-07-22T00:28:02;14.27;;;4.60;;
57746;SDS011;43580;44.014;20.466;2023-07-22T00:30:31;9.43;;;3.97;;
57746;SDS011;43580;44.014;20.466;2023-07-22T00:32:57;8.07;;;3.97;;
57746;SDS011;43580;44.014;20.466;2023-07-22T00:35:23;10.48;;;4.57;;
57746;SDS011;43580;44.014;20.466;2023-07-22T00:37:49;7.20;;;3.90;;
57746;SDS011;43580;44.014;20.466;2023-07-22T00:40:15;8.77;;;4.75;;
57746;SDS011;43580;44.014;20.466;2023-07-22T00:42:43;10.85;;;4.78;;
57746;SDS011;43580;44.014;20.466;2023-07-22T00:45:09;13.05;;;4.53;;
57746;SDS011;43580;44.014;20.466;2023-07-22T00:47:35;13.73;;;4.55;;
57746;SDS011;43580;44.014;20.466;2023-07-22T00:50:01;8.27;;;3.85;;
57746;SDS011;43580;44.014;20.466;2023-07-22T00:52:28;10.93;;;4.18;;
57746;SDS011;43580;44.014;20.466;2023-07-22T00:54:56;10.88;;;4.35;;
57746;SDS011;43580;44.014;20.466;2023-07-22T00:57:23;7.70;;;3.60;;
57746;SDS011;43580;44.014;20.466;2023-07-22T00:59:49;12.10;;;4.22;;
57746;SDS011;43580;44.014;20.466;2023-07-22T01:02:15;7.45;;;3.75;;
57746;SDS011;43580;44.014;20.466;2023-07-22T01:04:42;10.25;;;4.35;;
57746;SDS011;43580;44.014;20.466;2023-07-22T01:07:08;10.05;;;4.22;;
57746;SDS011;43580;44.014;20.466;2023-07-22T01:09:44;9.02;;;4.10;;
57746;SDS011;43580;44.014;20.466;2023-07-22T01:12:10;9.20;;;3.90;;
57746;SDS011;43580;44.014;20.466;2023-07-22T01:14:37;12.18;;;4.40;;
57746;SDS011;43580;44.014;20.466;2023-07-22T01:17:04;11.07;;;3.80;;
57746;SDS011;43580;44.014;20.466;2023-07-22T01:19:31;12.15;;;4.20;;
57746;SDS011;43580;44.014;20.466;2023-07-22T01:22:01;12.25;;;4.70;;
57746;SDS011;43580;44.014;20.466;2023-07-22T01:24:31;13.60;;;5.45;;
57746;SDS011;43580;44.014;20.466;2023-07-22T01:26:57;12.32;;;5.25;;
57746;SDS011;43580;44.014;20.466;2023-07-22T01:29:23;14.07;;;5.20;;
57746;SDS011;43580;44.014;20.466;2023-07-22T01:31:53;14.10;;;5.22;;
57746;SDS011;43580;44.014;20.466;2023-07-22T01:34:19;11.23;;;5.35;;
57746;SDS011;43580;44.014;20.466;2023-07-22T01:36:46;10.77;;;4.90;;
57746;SDS011;43580;44.014;20.466;2023-07-22T01:39:12;12.82;;;4.70;;
57746;SDS011;43580;44.014;20.466;2023-07-22T01:41:39;10.57;;;4.90;;
57746;SDS011;43580;44.014;20.466;2023-07-22T01:44:07;11.43;;;4.70;;
57746;SDS011;43580;44.014;20.466;2023-07-22T01:46:34;11.65;;;4.80;;
57746;SDS011;43580;44.014;20.466;2023-07-22T01:49:01;11.88;;;5.07;;
57746;SDS011;43580;44.014;20.466;2023-07-22T01:51:27;16.80;;;5.10;;
57746;SDS011;43580;44.014;20.466;2023-07-22T01:53:57;12.80;;;4.82;;
57746;SDS011;43580;44.014;20.466;2023-07-22T01:56:23;11.85;;;5.00;;
57746;SDS011;43580;44.014;20.466;2023-07-22T01:58:49;10.55;;;4.72;;
57746;SDS011;43580;44.014;20.466;2023-07-22T02:01:16;11.30;;;5.03;;
57746;SDS011;43580;44.014;20.466;2023-07-22T02:03:42;10.25;;;4.45;;
57746;SDS011;43580;44.014;20.466;2023-07-22T02:06:08;11.30;;;5.10;;
57746;SDS011;43580;44.014;20.466;2023-07-22T02:08:34;11.55;;;4.32;;
57746;SDS011;43580;44.014;20.466;2023-07-22T02:11:03;11.98;;;4.97;;
57746;SDS011;43580;44.014;20.466;2023-07-22T02:13:33;9.25;;;4.30;;
57746;SDS011;43580;44.014;20.466;2023-07-22T02:15:59;10.48;;;4.38;;
57746;SDS011;43580;44.014;20.466;2023-07-22T02:18:25;11.35;;;4.88;;
57746;SDS011;43580;44.014;20.466;2023-07-22T02:20:54;15.07;;;4.68;;
57746;SDS011;43580;44.014;20.466;2023-07-22T02:23:21;11.25;;;4.90;;
57746;SDS011;43580;44.014;20.466;2023-07-22T02:25:51;11.43;;;4.35;;
57746;SDS011;43580;44.014;20.466;2023-07-22T02:28:17;10.02;;;4.43;;
57746;SDS011;43580;44.014;20.466;2023-07-22T02:30:46;16.20;;;4.75;;
57746;SDS011;43580;44.014;20.466;2023-07-22T02:33:15;11.60;;;5.05;;
57746;SDS011;43580;44.014;20.466;2023-07-22T02:35:41;11.88;;;5.18;;
57746;SDS011;43580;44.014;20.466;2023-07-22T02:38:07;10.75;;;5.00;;
57746;SDS011;43580;44.014;20.466;2023-07-22T02:40:37;12.00;;;5.05;;
57746;SDS011;43580;44.014;20.466;2023-07-22T02:43:03;14.43;;;5.07;;
57746;SDS011;43580;44.014;20.466;2023-07-22T02:45:31;15.43;;;4.65;;
57746;SDS011;43580;44.014;20.466;2023-07-22T02:47:57;15.95;;;5.25;;
57746;SDS011;43580;44.014;20.466;2023-07-22T02:50:24;14.15;;;5.35;;
57746;SDS011;43580;44.014;20.466;2023-07-22T02:52:50;11.48;;;5.55;;
57746;SDS011;43580;44.014;20.466;2023-07-22T02:55:16;13.40;;;5.55;;
57746;SDS011;43580;44.014;20.466;2023-07-22T02:57:46;10.43;;;5.30;;
57746;SDS011;43580;44.014;20.466;2023-07-22T03:00:13;10.65;;;4.72;;
57746;SDS011;43580;44.014;20.466;2023-07-22T03:02:48;14.20;;;5.00;;
57746;SDS011;43580;44.014;20.466;2023-07-22T03:05:15;12.13;;;5.30;;
57746;SDS011;43580;44.014;20.466;2023-07-22T03:07:41;14.13;;;6.55;;
57746;SDS011;43580;44.014;20.466;2023-07-22T03:10:07;16.10;;;5.93;;
57746;SDS011;43580;44.014;20.466;2023-07-22T03:12:34;13.95;;;5.78;;
57746;SDS011;43580;44.014;20.466;2023-07-22T03:15:01;9.70;;;5.18;;
57746;SDS011;43580;44.014;20.466;2023-07-22T03:17:28;14.80;;;5.55;;
57746;SDS011;43580;44.014;20.466;2023-07-22T03:19:54;11.65;;;5.22;;
57746;SDS011;43580;44.014;20.466;2023-07-22T03:22:20;12.63;;;5.07;;
57746;SDS011;43580;44.014;20.466;2023-07-22T03:24:47;11.82;;;4.97;;
57746;SDS011;43580;44.014;20.466;2023-07-22T03:27:13;14.65;;;5.85;;
57746;SDS011;43580;44.014;20.466;2023-07-22T03:29:40;16.27;;;6.18;;
57746;SDS011;43580;44.014;20.466;2023-07-22T03:32:07;14.55;;;5.28;;
57746;SDS011;43580;44.014;20.466;2023-07-22T03:34:33;16.17;;;5.75;;
57746;SDS011;43580;44.014;20.466;2023-07-22T03:36:59;12.95;;;5.85;;
57746;SDS011;43580;44.014;20.466;2023-07-22T03:39:25;15.15;;;6.25;;
57746;SDS011;43580;44.014;20.466;2023-07-22T03:41:51;14.48;;;5.65;;
57746;SDS011;43580;44.014;20.466;2023-07-22T03:44:17;16.35;;;6.13;;
57746;SDS011;43580;44.014;20.466;2023-07-22T03:46:43;16.40;;;6.30;;
57746;SDS011;43580;44.014;20.466;2023-07-22T03:49:09;13.93;;;6.22;;
57746;SDS011;43580;44.014;20.466;2023-07-22T03:51:35;11.80;;;5.40;;
57746;SDS011;43580;44.014;20.466;2023-07-22T03:54:01;12.55;;;5.75;;
57746;SDS011;43580;44.014;20.466;2023-07-22T03:56:27;11.57;;;5.80;;
57746;SDS011;43580;44.014;20.466;2023-07-22T03:58:53;11.35;;;5.43;;
57746;SDS011;43580;44.014;20.466;2023-07-22T04:01:19;13.00;;;6.00;;
57746;SDS011;43580;44.014;20.466;2023-07-22T04:03:45;10.25;;;5.30;;
57746;SDS011;43580;44.014;20.466;2023-07-22T04:06:14;12.95;;;5.30;;
57746;SDS011;43580;44.014;20.466;2023-07-22T04:08:40;15.75;;;5.75;;
57746;SDS011;43580;44.014;20.466;2023-07-22T04:11:09;13.65;;;5.50;;
57746;SDS011;43580;44.014;20.466;2023-07-22T04:13:35;15.55;;;5.88;;
57746;SDS011;43580;44.014;20.466;2023-07-22T04:16:01;10.38;;;5.45;;
57746;SDS011;43580;44.014;20.466;2023-07-22T04:18:27;14.73;;;6.18;;
57746;SDS011;43580;44.014;20.466;2023-07-22T04:20:58;13.90;;;6.05;;
57746;SDS011;43580;44.014;20.466;2023-07-22T04:23:24;16.13;;;5.60;;
57746;SDS011;43580;44.014;20.466;2023-07-22T04:25:50;15.23;;;5.63;;
57746;SDS011;43580;44.014;20.466;2023-07-22T04:28:17;15.75;;;7.90;;
57746;SDS011;43580;44.014;20.466;2023-07-22T04:30:43;13.52;;;7.25;;
57746;SDS011;43580;44.014;20.466;2023-07-22T04:33:09;12.82;;;6.28;;
57746;SDS011;43580;44.014;20.466;2023-07-22T04:35:38;16.33;;;5.95;;
57746;SDS011;43580;44.014;20.466;2023-07-22T04:38:06;14.23;;;6.28;;
57746;SDS011;43580;44.014;20.466;2023-07-22T04:40:32;12.65;;;5.38;;
57746;SDS011;43580;44.014;20.466;2023-07-22T04:43:01;12.35;;;6.03;;
57746;SDS011;43580;44.014;20.466;2023-07-22T04:45:27;13.52;;;5.68;;
57746;SDS011;43580;44.014;20.466;2023-07-22T04:47:53;13.50;;;5.93;;
57746;SDS011;43580;44.014;20.466;2023-07-22T04:50:20;10.23;;;5.88;;
57746;SDS011;43580;44.014;20.466;2023-07-22T04:52:46;14.48;;;5.88;;
57746;SDS011;43580;44.014;20.466;2023-07-22T04:55:13;16.23;;;5.43;;
57746;SDS011;43580;44.014;20.466;2023-07-22T04:57:40;17.50;;;5.40;;
57746;SDS011;43580;44.014;20.466;2023-07-22T05:00:06;17.65;;;6.30;;
57746;SDS011;43580;44.014;20.466;2023-07-22T05:02:38;12.65;;;5.65;;
57746;SDS011;43580;44.014;20.466;2023-07-22T05:05:05;15.13;;;5.18;;
57746;SDS011;43580;44.014;20.466;2023-07-22T05:07:31;12.55;;;5.70;;
57746;SDS011;43580;44.014;20.466;2023-07-22T05:09:57;10.73;;;6.60;;
57746;SDS011;43580;44.014;20.466;2023-07-22T05:12:23;12.43;;;5.85;;
57746;SDS011;43580;44.014;20.466;2023-07-22T05:14:52;14.07;;;5.82;;
57746;SDS011;43580;44.014;20.466;2023-07-22T05:17:18;14.02;;;5.55;;
57746;SDS011;43580;44.014;20.466;2023-07-22T05:19:44;12.48;;;5.18;;
57746;SDS011;43580;44.014;20.466;2023-07-22T05:22:10;16.52;;;5.03;;
57746;SDS011;43580;44.014;20.466;2023-07-22T05:24:36;12.15;;;5.90;;
57746;SDS011;43580;44.014;20.466;2023-07-22T05:27:05;13.65;;;5.13;;
57746;SDS011;43580;44.014;20.466;2023-07-22T05:29:31;11.98;;;5.13;;
57746;SDS011;43580;44.014;20.466;2023-07-22T05:31:57;12.05;;;5.45;;
57746;SDS011;43580;44.014;20.466;2023-07-22T05:34:23;13.70;;;5.40;;
57746;SDS011;43580;44.014;20.466;2023-07-22T05:36:49;13.18;;;5.88;;
57746;SDS011;43580;44.014;20.466;2023-07-22T05:39:15;11.18;;;5.65;;
57746;SDS011;43580;44.014;20.466;2023-07-22T05:41:43;11.70;;;5.38;;
57746;SDS011;43580;44.014;20.466;2023-07-22T05:44:09;12.48;;;5.72;;
57746;SDS011;43580;44.014;20.466;2023-07-22T05:46:35;14.75;;;5.47;;
57746;SDS011;43580;44.014;20.466;2023-07-22T05:49:03;12.98;;;5.55;;
57746;SDS011;43580;44.014;20.466;2023-07-22T05:51:29;14.65;;;5.85;;
57746;SDS011;43580;44.014;20.466;2023-07-22T05:53:55;18.10;;;5.63;;
57746;SDS011;43580;44.014;20.466;2023-07-22T05:56:22;14.90;;;5.30;;
57746;SDS011;43580;44.014;20.466;2023-07-22T05:58:48;15.88;;;6.25;;
57746;SDS011;43580;44.014;20.466;2023-07-22T06:01:14;11.82;;;5.30;;
57746;SDS011;43580;44.014;20.466;2023-07-22T06:03:40;16.90;;;5.40;;
57746;SDS011;43580;44.014;20.466;2023-07-22T06:06:08;17.42;;;5.35;;
57746;SDS011;43580;44.014;20.466;2023-07-22T06:08:34;15.25;;;5.97;;
57746;SDS011;43580;44.014;20.466;2023-07-22T06:11:03;26.40;;;5.45;;
57746;SDS011;43580;44.014;20.466;2023-07-22T06:13:29;14.00;;;4.90;;
57746;SDS011;43580;44.014;20.466;2023-07-22T06:15:57;10.27;;;5.05;;
57746;SDS011;43580;44.014;20.466;2023-07-22T06:18:23;17.33;;;5.10;;
57746;SDS011;43580;44.014;20.466;2023-07-22T06:20:50;19.08;;;5.75;;
57746;SDS011;43580;44.014;20.466;2023-07-22T06:23:16;15.13;;;5.13;;
57746;SDS011;43580;44.014;20.466;2023-07-22T06:25:42;15.55;;;5.28;;
57746;SDS011;43580;44.014;20.466;2023-07-22T06:28:08;12.20;;;5.03;;
57746;SDS011;43580;44.014;20.466;2023-07-22T06:30:34;9.93;;;4.60;;
57746;SDS011;43580;44.014;20.466;2023-07-22T06:33:00;12.18;;;4.68;;
57746;SDS011;43580;44.014;20.466;2023-07-22T06:35:26;11.85;;;4.68;;
57746;SDS011;43580;44.014;20.466;2023-07-22T06:37:53;12.07;;;4.35;;
57746;SDS011;43580;44.014;20.466;2023-07-22T06:40:19;12.85;;;4.55;;
57746;SDS011;43580;44.014;20.466;2023-07-22T06:42:45;14.63;;;4.95;;
57746;SDS011;43580;44.014;20.466;2023-07-22T06:45:11;9.20;;;4.32;;
57746;SDS011;43580;44.014;20.466;2023-07-22T06:47:37;9.85;;;5.35;;
57746;SDS011;43580;44.014;20.466;2023-07-22T06:50:05;13.95;;;5.05;;
57746;SDS011;43580;44.014;20.466;2023-07-22T06:52:32;15.57;;;9.27;;
57746;SDS011;43580;44.014;20.466;2023-07-22T06:54:58;15.07;;;6.80;;
57746;SDS011;43580;44.014;20.466;2023-07-22T06:57:29;14.48;;;7.30;;
57746;SDS011;43580;44.014;20.466;2023-07-22T06:59:55;13.73;;;5.05;;
57746;SDS011;43580;44.014;20.466;2023-07-22T07:02:21;15.50;;;5.10;;
57746;SDS011;43580;44.014;20.466;2023-07-22T07:04:48;15.10;;;6.22;;
57746;SDS011;43580;44.014;20.466;2023-07-22T07:07:14;12.98;;;5.00;;
57746;SDS011;43580;44.014;20.466;2023-07-22T07:09:41;13.02;;;4.85;;
57746;SDS011;43580;44.014;20.466;2023-07-22T07:12:07;10.45;;;4.22;;
57746;SDS011;43580;44.014;20.466;2023-07-22T07:14:34;12.30;;;5.25;;
57746;SDS011;43580;44.014;20.466;2023-07-22T07:17:00;9.27;;;4.13;;
57746;SDS011;43580;44.014;20.466;2023-07-22T07:19:32;10.55;;;4.13;;
57746;SDS011;43580;44.014;20.466;2023-07-22T07:21:58;14.25;;;4.60;;
57746;SDS011;43580;44.014;20.466;2023-07-22T07:24:24;12.88;;;4.28;;
57746;SDS011;43580;44.014;20.466;2023-07-22T07:26:53;12.43;;;4.90;;
57746;SDS011;43580;44.014;20.466;2023-07-22T07:29:19;13.40;;;5.25;;
57746;SDS011;43580;44.014;20.466;2023-07-22T07:31:45;14.77;;;4.93;;
57746;SDS011;43580;44.014;20.466;2023-07-22T07:34:11;11.70;;;4.68;;
57746;SDS011;43580;44.014;20.466;2023-07-22T07:36:37;12.75;;;5.10;;
57746;SDS011;43580;44.014;20.466;2023-07-22T07:39:06;12.65;;;4.70;;
57746;SDS011;43580;44.014;20.466;2023-07-22T07:41:32;15.18;;;5.13;;
57746;SDS011;43580;44.014;20.466;2023-07-22T07:43:58;12.63;;;4.95;;
57746;SDS011;43580;44.014;20.466;2023-07-22T07:46:26;12.00;;;4.60;;
57746;SDS011;43580;44.014;20.466;2023-07-22T07:48:53;12.20;;;4.47;;
57746;SDS011;43580;44.014;20.466;2023-07-22T07:51:19;11.48;;;4.30;;
57746;SDS011;43580;44.014;20.466;2023-07-22T07:53:46;14.65;;;5.18;;
57746;SDS011;43580;44.014;20.466;2023-07-22T07:56:15;10.73;;;5.57;;
57746;SDS011;43580;44.014;20.466;2023-07-22T07:58:42;18.00;;;5.07;;
57746;SDS011;43580;44.014;20.466;2023-07-22T08:01:08;14.13;;;5.22;;
57746;SDS011;43580;44.014;20.466;2023-07-22T08:03:37;12.40;;;5.05;;
57746;SDS011;43580;44.014;20.466;2023-07-22T08:06:07;15.77;;;5.57;;
57746;SDS011;43580;44.014;20.466;2023-07-22T08:08:33;12.48;;;5.68;;
57746;SDS011;43580;44.014;20.466;2023-07-22T08:13:35;12.65;;;5.38;;
57746;SDS011;43580;44.014;20.466;2023-07-22T08:16:02;23.67;;;5.82;;
57746;SDS011;43580;44.014;20.466;2023-07-22T08:18:28;14.68;;;5.28;;
57746;SDS011;43580;44.014;20.466;2023-07-22T08:20:54;12.40;;;5.13;;
57746;SDS011;43580;44.014;20.466;2023-07-22T08:23:21;14.77;;;4.88;;
57746;SDS011;43580;44.014;20.466;2023-07-22T08:25:47;15.50;;;5.57;;
57746;SDS011;43580;44.014;20.466;2023-07-22T08:28:13;13.07;;;5.07;;
57746;SDS011;43580;44.014;20.466;2023-07-22T08:30:39;11.77;;;5.15;;
57746;SDS011;43580;44.014;20.466;2023-07-22T08:33:09;16.02;;;5.55;;
57746;SDS011;43580;44.014;20.466;2023-07-22T08:35:38;11.63;;;4.68;;
57746;SDS011;43580;44.014;20.466;2023-07-22T08:38:04;13.05;;;4.78;;
57746;SDS011;43580;44.014;20.466;2023-07-22T08:40:34;10.43;;;4.53;;
57746;SDS011;43580;44.014;20.466;2023-07-22T08:43:01;12.25;;;6.13;;
57746;SDS011;43580;44.014;20.466;2023-07-22T08:45:29;9.43;;;4.70;;
57746;SDS011;43580;44.014;20.466;2023-07-22T08:47:57;13.95;;;5.13;;
57746;SDS011;43580;44.014;20.466;2023-07-22T08:50:25;12.15;;;6.25;;
57746;SDS011;43580;44.014;20.466;2023-07-22T08:52:52;13.07;;;6.05;;
57746;SDS011;43580;44.014;20.466;2023-07-22T08:55:18;11.18;;;5.45;;
57746;SDS011;43580;44.014;20.466;2023-07-22T08:57:44;12.48;;;4.38;;
57746;SDS011;43580;44.014;20.466;2023-07-22T09:00:11;11.88;;;4.68;;
57746;SDS011;43580;44.014;20.466;2023-07-22T09:02:38;12.45;;;5.32;;
57746;SDS011;43580;44.014;20.466;2023-07-22T09:05:05;15.43;;;5.38;;
57746;SDS011;43580;44.014;20.466;2023-07-22T09:07:33;16.17;;;5.07;;
57746;SDS011;43580;44.014;20.466;2023-07-22T09:09:59;10.18;;;4.60;;
57746;SDS011;43580;44.014;20.466;2023-07-22T09:12:26;12.77;;;5.40;;
57746;SDS011;43580;44.014;20.466;2023-07-22T09:14:53;9.15;;;4.50;;
57746;SDS011;43580;44.014;20.466;2023-07-22T09:17:19;12.80;;;5.85;;
57746;SDS011;43580;44.014;20.466;2023-07-22T09:19:45;13.07;;;5.35;;
57746;SDS011;43580;44.014;20.466;2023-07-22T09:22:11;12.85;;;4.93;;
57746;SDS011;43580;44.014;20.466;2023-07-22T09:24:37;13.55;;;4.60;;
57746;SDS011;43580;44.014;20.466;2023-07-22T09:27:03;11.82;;;4.90;;
57746;SDS011;43580;44.014;20.466;2023-07-22T09:29:36;12.07;;;4.93;;
57746;SDS011;43580;44.014;20.466;2023-07-22T09:32:03;13.27;;;5.03;;
57746;SDS011;43580;44.014;20.466;2023-07-22T09:34:29;10.38;;;4.82;;
57746;SDS011;43580;44.014;20.466;2023-07-22T09:36:56;12.48;;;5.05;;
57746;SDS011;43580;44.014;20.466;2023-07-22T09:39:23;10.10;;;4.93;;
57746;SDS011;43580;44.014;20.466;2023-07-22T09:41:50;15.02;;;6.05;;
57746;SDS011;43580;44.014;20.466;2023-07-22T09:44:18;10.70;;;4.78;;
57746;SDS011;43580;44.014;20.466;2023-07-22T09:46:50;11.13;;;4.93;;
57746;SDS011;43580;44.014;20.466;2023-07-22T09:49:17;11.93;;;5.43;;
57746;SDS011;43580;44.014;20.466;2023-07-22T09:51:43;10.15;;;5.10;;
57746;SDS011;43580;44.014;20.466;2023-07-22T09:54:12;12.50;;;4.85;;
57746;SDS011;43580;44.014;20.466;2023-07-22T09:56:45;16.52;;;5.32;;
57746;SDS011;43580;44.014;20.466;2023-07-22T09:59:11;12.65;;;5.05;;
57746;SDS011;43580;44.014;20.466;2023-07-22T10:01:37;10.80;;;4.93;;
57746;SDS011;43580;44.014;20.466;2023-07-22T10:04:04;10.98;;;5.22;;
57746;SDS011;43580;44.014;20.466;2023-07-22T10:06:33;11.02;;;4.82;;
57746;SDS011;43580;44.014;20.466;2023-07-22T10:09:01;10.85;;;5.20;;
57746;SDS011;43580;44.014;20.466;2023-07-22T10:11:33;15.00;;;5.57;;
57746;SDS011;43580;44.014;20.466;2023-07-22T10:14:03;10.45;;;4.90;;
57746;SDS011;43580;44.014;20.466;2023-07-22T10:16:29;12.68;;;5.53;;
57746;SDS011;43580;44.014;20.466;2023-07-22T10:18:55;13.15;;;5.00;;
57746;SDS011;43580;44.014;20.466;2023-07-22T10:21:22;14.13;;;5.28;;
57746;SDS011;43580;44.014;20.466;2023-07-22T10:23:54;11.70;;;5.10;;
57746;SDS011;43580;44.014;20.466;2023-07-22T10:26:21;10.00;;;4.80;;
57746;SDS011;43580;44.014;20.466;2023-07-22T10:28:47;11.40;;;5.38;;
57746;SDS011;43580;44.014;20.466;2023-07-22T10:31:14;11.02;;;4.72;;
57746;SDS011;43580;44.014;20.466;2023-07-22T10:33:46;10.98;;;5.50;;
57746;SDS011;43580;44.014;20.466;2023-07-22T10:36:14;13.30;;;4.90;;
57746;SDS011;43580;44.014;20.466;2023-07-22T10:38:41;10.18;;;4.63;;
57746;SDS011;43580;44.014;20.466;2023-07-22T10:41:14;12.02;;;4.93;;
57746;SDS011;43580;44.014;20.466;2023-07-22T10:43:42;11.15;;;5.45;;
57746;SDS011;43580;44.014;20.466;2023-07-22T10:46:12;8.75;;;5.07;;
57746;SDS011;43580;44.014;20.466;2023-07-22T10:48:41;10.90;;;5.18;;
57746;SDS011;43580;44.014;20.466;2023-07-22T10:53:38;7.82;;;5.32;;
57746;SDS011;43580;44.014;20.466;2023-07-22T10:56:12;8.68;;;5.32;;
57746;SDS011;43580;44.014;20.466;2023-07-22T11:06:39;12.55;;;8.02;;
57746;SDS011;43580;44.014;20.466;2023-07-22T11:09:05;10.57;;;6.40;;
57746;SDS011;43580;44.014;20.466;2023-07-22T11:11:44;11.85;;;6.07;;
57746;SDS011;43580;44.014;20.466;2023-07-22T11:16:40;12.18;;;7.40;;
57746;SDS011;43580;44.014;20.466;2023-07-22T11:19:06;11.25;;;6.03;;
57746;SDS011;43580;44.014;20.466;2023-07-22T11:21:32;12.48;;;6.70;;
57746;SDS011;43580;44.014;20.466;2023-07-22T11:23:58;14.48;;;7.03;;
57746;SDS011;43580;44.014;20.466;2023-07-22T11:26:24;14.85;;;7.07;;
57746;SDS011;43580;44.014;20.466;2023-07-22T11:28:50;10.30;;;6.43;;
57746;SDS011;43580;44.014;20.466;2023-07-22T11:31:18;10.10;;;6.40;;
57746;SDS011;43580;44.014;20.466;2023-07-22T11:33:44;12.63;;;6.80;;
57746;SDS011;43580;44.014;20.466;2023-07-22T11:36:12;9.93;;;6.35;;
57746;SDS011;43580;44.014;20.466;2023-07-22T11:38:38;16.45;;;6.70;;
57746;SDS011;43580;44.014;20.466;2023-07-22T11:41:05;14.02;;;7.10;;
57746;SDS011;43580;44.014;20.466;2023-07-22T11:43:31;10.07;;;5.97;;
57746;SDS011;43580;44.014;20.466;2023-07-22T11:45:57;12.75;;;6.97;;
57746;SDS011;43580;44.014;20.466;2023-07-22T11:48:23;12.15;;;6.95;;
57746;SDS011;43580;44.014;20.466;2023-07-22T11:50:49;33.50;;;6.93;;
57746;SDS011;43580;44.014;20.466;2023-07-22T11:53:15;11.52;;;7.13;;
57746;SDS011;43580;44.014;20.466;2023-07-22T11:55:42;12.27;;;7.32;;
57746;SDS011;43580;44.014;20.466;2023-07-22T11:58:10;16.45;;;6.80;;
57746;SDS011;43580;44.014;20.466;2023-07-22T12:00:36;18.35;;;9.15;;
57746;SDS011;43580;44.014;20.466;2023-07-22T12:03:05;8.65;;;6.28;;
57746;SDS011;43580;44.014;20.466;2023-07-22T12:05:34;9.93;;;7.00;;
57746;SDS011;43580;44.014;20.466;2023-07-22T12:08:02;14.00;;;7.88;;
57746;SDS011;43580;44.014;20.466;2023-07-22T12:10:29;25.83;;;9.40;;
57746;SDS011;43580;44.014;20.466;2023-07-22T12:12:55;15.88;;;8.18;;
57746;SDS011;43580;44.014;20.466;2023-07-22T12:15:26;18.60;;;9.07;;
57746;SDS011;43580;44.014;20.466;2023-07-22T12:17:59;16.25;;;7.00;;
57746;SDS011;43580;44.014;20.466;2023-07-22T12:22:54;12.35;;;6.90;;
57746;SDS011;43580;44.014;20.466;2023-07-22T12:25:20;11.48;;;6.60;;
57746;SDS011;43580;44.014;20.466;2023-07-22T12:27:47;12.98;;;7.35;;
57746;SDS011;43580;44.014;20.466;2023-07-22T12:30:15;45.08;;;15.52;;
57746;SDS011;43580;44.014;20.466;2023-07-22T12:32:42;20.88;;;9.18;;
57746;SDS011;43580;44.014;20.466;2023-07-22T12:35:08;17.63;;;8.65;;
57746;SDS011;43580;44.014;20.466;2023-07-22T12:37:35;16.27;;;8.43;;
57746;SDS011;43580;44.014;20.466;2023-07-22T12:40:01;13.95;;;8.65;;
57746;SDS011;43580;44.014;20.466;2023-07-22T12:42:29;14.32;;;7.78;;
57746;SDS011;43580;44.014;20.466;2023-07-22T12:44:55;20.75;;;10.65;;
57746;SDS011;43580;44.014;20.466;2023-07-22T12:47:22;16.40;;;8.25;;
57746;SDS011;43580;44.014;20.466;2023-07-22T12:49:48;21.83;;;11.27;;
57746;SDS011;43580;44.014;20.466;2023-07-22T12:52:14;14.82;;;9.07;;
57746;SDS011;43580;44.014;20.466;2023-07-22T12:54:40;13.57;;;7.90;;
57746;SDS011;43580;44.014;20.466;2023-07-22T12:57:07;25.17;;;11.48;;
57746;SDS011;43580;44.014;20.466;2023-07-22T12:59:33;11.73;;;9.00;;
57746;SDS011;43580;44.014;20.466;2023-07-22T13:01:59;13.68;;;7.97;;
57746;SDS011;43580;44.014;20.466;2023-07-22T13:04:25;14.55;;;8.20;;
57746;SDS011;43580;44.014;20.466;2023-07-22T13:06:51;12.25;;;7.55;;
57746;SDS011;43580;44.014;20.466;2023-07-22T13:09:17;16.05;;;9.23;;
57746;SDS011;43580;44.014;20.466;2023-07-22T13:11:43;11.30;;;8.48;;
57746;SDS011;43580;44.014;20.466;2023-07-22T13:14:10;13.55;;;7.68;;
57746;SDS011;43580;44.014;20.466;2023-07-22T13:16:36;13.52;;;7.70;;
57746;SDS011;43580;44.014;20.466;2023-07-22T13:19:02;12.52;;;7.90;;
57746;SDS011;43580;44.014;20.466;2023-07-22T13:21:28;11.35;;;7.93;;
57746;SDS011;43580;44.014;20.466;2023-07-22T13:23:54;14.30;;;9.43;;
57746;SDS011;43580;44.014;20.466;2023-07-22T13:26:20;12.65;;;8.32;;
57746;SDS011;43580;44.014;20.466;2023-07-22T13:28:46;12.90;;;9.25;;
57746;SDS011;43580;44.014;20.466;2023-07-22T13:31:13;12.55;;;9.05;;
57746;SDS011;43580;44.014;20.466;2023-07-22T13:33:39;13.80;;;9.73;;
57746;SDS011;43580;44.014;20.466;2023-07-22T13:36:06;19.17;;;9.57;;
57746;SDS011;43580;44.014;20.466;2023-07-22T13:38:34;13.45;;;9.02;;
57746;SDS011;43580;44.014;20.466;2023-07-22T13:41:00;14.13;;;8.90;;
57746;SDS011;43580;44.014;20.466;2023-07-22T13:43:26;16.65;;;9.52;;
57746;SDS011;43580;44.014;20.466;2023-07-22T13:45:54;14.98;;;9.30;;
57746;SDS011;43580;44.014;20.466;2023-07-22T13:48:21;16.00;;;9.68;;
57746;SDS011;43580;44.014;20.466;2023-07-22T13:50:47;14.60;;;10.23;;
57746;SDS011;43580;44.014;20.466;2023-07-22T13:53:13;13.98;;;10.50;;
57746;SDS011;43580;44.014;20.466;2023-07-22T13:55:39;14.63;;;12.43;;
57746;SDS011;43580;44.014;20.466;2023-07-22T13:58:05;17.73;;;11.77;;
57746;SDS011;43580;44.014;20.466;2023-07-22T14:00:32;17.85;;;11.00;;
57746;SDS011;43580;44.014;20.466;2023-07-22T14:02:58;13.90;;;11.88;;
57746;SDS011;43580;44.014;20.466;2023-07-22T14:05:24;16.65;;;12.10;;
57746;SDS011;43580;44.014;20.466;2023-07-22T14:07:50;18.02;;;12.43;;
57746;SDS011;43580;44.014;20.466;2023-07-22T14:10:16;22.33;;;14.07;;
57746;SDS011;43580;44.014;20.466;2023-07-22T14:12:42;17.85;;;13.80;;
57746;SDS011;43580;44.014;20.466;2023-07-22T14:15:08;21.48;;;14.48;;
57746;SDS011;43580;44.014;20.466;2023-07-22T14:17:35;25.42;;;14.70;;
57746;SDS011;43580;44.014;20.466;2023-07-22T14:20:03;18.83;;;15.13;;
57746;SDS011;43580;44.014;20.466;2023-07-22T14:22:30;16.80;;;15.05;;
57746;SDS011;43580;44.014;20.466;2023-07-22T14:24:56;16.65;;;14.70;;
57746;SDS011;43580;44.014;20.466;2023-07-22T14:27:22;21.83;;;14.95;;
57746;SDS011;43580;44.014;20.466;2023-07-22T14:29:50;17.40;;;15.20;;
57746;SDS011;43580;44.014;20.466;2023-07-22T14:32:21;21.55;;;16.20;;
57746;SDS011;43580;44.014;20.466;2023-07-22T14:34:47;20.02;;;15.52;;
57746;SDS011;43580;44.014;20.466;2023-07-22T14:37:13;19.25;;;16.27;;